sensor_id;sensor_type;location;lat;lon;timestamp;P1;durP1;ratioP1;P2;durP2;ratioP2
50781;SDS011;36749;37.428;-121.972;2023-05-06T00:00:08;4.03;;;1.50;;
50781;SDS011;36749;37.428;-121.972;2023-05-06T00:02:37;2.30;;;1.60;;
50781;SDS011;36749;37.428;-121.972;2023-05-06T00:05:03;3.22;;;1.40;;
50781;SDS011;36749;37.428;-121.972;2023-05-06T00:07:29;9.32;;;1.67;;
50781;SDS011;36749;37.428;-121.972;2023-05-06T00:09:55;2.25;;;1.50;;
50781;SDS011;36749;37.428;-121.972;2023-05-06T00:12:22;5.28;;;1.55;;
50781;SDS011;36749;37.428;-121.972;2023-05-06T00:14:48;3.88;;;1.45;;
50781;SDS011;36749;37.428;-121.972;2023-05-06T00:17:14;4.22;;;1.15;;
50781;SDS011;36749;37.428;-121.972;2023-05-06T00:19:40;3.15;;;1.70;;
50781;SDS011;36749;37.428;-121.972;2023-05-06T00:22:08;2.88;;;1.33;;
50781;SDS011;36749;37.428;-121.972;2023-05-06T00:24:35;4.72;;;1.58;;
50781;SDS011;36749;37.428;-121.972;2023-05-06T00:27:01;11.27;;;1.80;;
50781;SDS011;36749;37.428;-121.972;2023-05-06T00:29:27;2.85;;;1.50;;
50781;SDS011;36749;37.428;-121.972;2023-05-06T00:31:53;5.45;;;1.60;;
50781;SDS011;36749;37.428;-121.972;2023-05-06T00:34:19;2.85;;;1.10;;
50781;SDS011;36749;37.428;-121.972;2023-05-06T00:36:45;6.50;;;1.50;;
50781;SDS011;36749;37.428;-121.972;2023-05-06T00:39:12;4.03;;;1.40;;
50781;SDS011;36749;37.428;-121.972;2023-05-06T00:41:38;1.58;;;1.38;;
50781;SDS011;36749;37.428;-121.972;2023-05-06T00:44:04;1.30;;;1.20;;
50781;SDS011;36749;37.428;-121.972;2023-05-06T00:46:30;14.90;;;2.20;;
50781;SDS011;36749;37.428;-121.972;2023-05-06T00:48:56;1.63;;;1.15;;
50781;SDS011;36749;37.428;-121.972;2023-05-06T00:51:22;1.38;;;1.00;;
50781;SDS011;36749;37.428;-121.972;2023-05-06T00:53:49;3.60;;;1.48;;
50781;SDS011;36749;37.428;-121.972;2023-05-06T00:56:15;2.03;;;1.08;;
50781;SDS011;36749;37.428;-121.972;2023-05-06T00:58:44;5.03;;;1.40;;
50781;SDS011;36749;37.428;-121.972;2023-05-06T01:01:10;3.90;;;1.27;;
50781;SDS011;36749;37.428;-121.972;2023-05-06T01:03:37;4.65;;;1.33;;
50781;SDS011;36749;37.428;-121.972;2023-05-06T01:11:14;1.65;;;1.30;;
50781;SDS011;36749;37.428;-121.972;2023-05-06T01:13:46;3.63;;;1.50;;
50781;SDS011;36749;37.428;-121.972;2023-05-06T01:16:19;4.78;;;1.65;;
50781;SDS011;36749;37.428;-121.972;2023-05-06T01:18:46;3.90;;;1.35;;
50781;SDS011;36749;37.428;-121.972;2023-05-06T01:21:12;1.95;;;1.70;;
50781;SDS011;36749;37.428;-121.972;2023-05-06T01:26:19;5.75;;;1.77;;
50781;SDS011;36749;37.428;-121.972;2023-05-06T01:28:46;3.40;;;1.08;;
50781;SDS011;36749;37.428;-121.972;2023-05-06T01:31:14;1.02;;;1.00;;
50781;SDS011;36749;37.428;-121.972;2023-05-06T01:41:41;3.00;;;1.50;;
50781;SDS011;36749;37.428;-121.972;2023-05-06T01:44:09;3.58;;;1.17;;
50781;SDS011;36749;37.428;-121.972;2023-05-06T01:46:35;3.53;;;1.42;;
50781;SDS011;36749;37.428;-121.972;2023-05-06T01:49:06;2.38;;;1.35;;
50781;SDS011;36749;37.428;-121.972;2023-05-06T01:51:35;1.40;;;1.30;;
50781;SDS011;36749;37.428;-121.972;2023-05-06T01:54:02;6.13;;;1.48;;
50781;SDS011;36749;37.428;-121.972;2023-05-06T01:56:28;0.95;;;0.88;;
50781;SDS011;36749;37.428;-121.972;2023-05-06T01:58:58;5.30;;;1.33;;
50781;SDS011;36749;37.428;-121.972;2023-05-06T02:01:24;2.45;;;1.20;;
50781;SDS011;36749;37.428;-121.972;2023-05-06T02:03:50;2.58;;;1.10;;
50781;SDS011;36749;37.428;-121.972;2023-05-06T02:06:16;1.17;;;1.02;;
50781;SDS011;36749;37.428;-121.972;2023-05-06T02:08:42;2.58;;;1.27;;
50781;SDS011;36749;37.428;-121.972;2023-05-06T02:11:09;2.13;;;1.40;;
50781;SDS011;36749;37.428;-121.972;2023-05-06T02:13:35;2.28;;;1.70;;
50781;SDS011;36749;37.428;-121.972;2023-05-06T02:16:01;2.60;;;1.10;;
50781;SDS011;36749;37.428;-121.972;2023-05-06T02:18:27;2.78;;;1.48;;
50781;SDS011;36749;37.428;-121.972;2023-05-06T02:20:53;3.25;;;1.10;;
50781;SDS011;36749;37.428;-121.972;2023-05-06T02:23:20;2.95;;;1.35;;
50781;SDS011;36749;37.428;-121.972;2023-05-06T02:25:46;1.50;;;1.40;;
50781;SDS011;36749;37.428;-121.972;2023-05-06T02:28:14;4.10;;;1.50;;
50781;SDS011;36749;37.428;-121.972;2023-05-06T02:30:40;2.47;;;1.52;;
50781;SDS011;36749;37.428;-121.972;2023-05-06T02:33:06;4.90;;;1.92;;
50781;SDS011;36749;37.428;-121.972;2023-05-06T02:35:33;7.20;;;2.15;;
50781;SDS011;36749;37.428;-121.972;2023-05-06T02:37:59;2.15;;;1.23;;
50781;SDS011;36749;37.428;-121.972;2023-05-06T02:40:25;2.92;;;1.65;;
50781;SDS011;36749;37.428;-121.972;2023-05-06T02:42:51;3.70;;;1.40;;
50781;SDS011;36749;37.428;-121.972;2023-05-06T02:45:18;3.20;;;1.50;;
50781;SDS011;36749;37.428;-121.972;2023-05-06T02:47:44;2.28;;;1.25;;
50781;SDS011;36749;37.428;-121.972;2023-05-06T02:50:10;2.63;;;1.23;;
50781;SDS011;36749;37.428;-121.972;2023-05-06T02:52:36;4.30;;;1.80;;
50781;SDS011;36749;37.428;-121.972;2023-05-06T02:55:03;1.88;;;1.38;;
50781;SDS011;36749;37.428;-121.972;2023-05-06T02:57:30;2.50;;;1.35;;
50781;SDS011;36749;37.428;-121.972;2023-05-06T02:59:57;4.10;;;1.20;;
50781;SDS011;36749;37.428;-121.972;2023-05-06T03:02:23;1.45;;;1.13;;
50781;SDS011;36749;37.428;-121.972;2023-05-06T03:04:50;3.88;;;1.30;;
50781;SDS011;36749;37.428;-121.972;2023-05-06T03:07:16;3.03;;;1.50;;
50781;SDS011;36749;37.428;-121.972;2023-05-06T03:09:42;4.93;;;1.38;;
50781;SDS011;36749;37.428;-121.972;2023-05-06T03:12:08;3.65;;;1.48;;
50781;SDS011;36749;37.428;-121.972;2023-05-06T03:14:36;3.00;;;1.40;;
50781;SDS011;36749;37.428;-121.972;2023-05-06T03:17:02;3.13;;;1.27;;
50781;SDS011;36749;37.428;-121.972;2023-05-06T03:19:28;1.42;;;1.33;;
50781;SDS011;36749;37.428;-121.972;2023-05-06T03:21:54;3.22;;;1.35;;
50781;SDS011;36749;37.428;-121.972;2023-05-06T03:24:20;2.67;;;1.30;;
50781;SDS011;36749;37.428;-121.972;2023-05-06T03:26:47;4.60;;;1.40;;
50781;SDS011;36749;37.428;-121.972;2023-05-06T03:29:13;4.22;;;1.50;;
50781;SDS011;36749;37.428;-121.972;2023-05-06T03:31:39;1.55;;;1.45;;
50781;SDS011;36749;37.428;-121.972;2023-05-06T03:34:06;2.70;;;1.45;;
50781;SDS011;36749;37.428;-121.972;2023-05-06T03:36:34;2.78;;;1.70;;
50781;SDS011;36749;37.428;-121.972;2023-05-06T03:39:00;3.35;;;2.10;;
50781;SDS011;36749;37.428;-121.972;2023-05-06T03:41:27;4.47;;;1.55;;
50781;SDS011;36749;37.428;-121.972;2023-05-06T03:43:53;4.05;;;1.75;;
50781;SDS011;36749;37.428;-121.972;2023-05-06T03:46:20;3.90;;;1.67;;
50781;SDS011;36749;37.428;-121.972;2023-05-06T03:48:46;3.08;;;1.35;;
50781;SDS011;36749;37.428;-121.972;2023-05-06T03:51:12;1.30;;;1.20;;
50781;SDS011;36749;37.428;-121.972;2023-05-06T03:53:38;3.65;;;1.50;;
50781;SDS011;36749;37.428;-121.972;2023-05-06T03:56:05;3.88;;;1.40;;
50781;SDS011;36749;37.428;-121.972;2023-05-06T03:58:31;1.25;;;1.10;;
50781;SDS011;36749;37.428;-121.972;2023-05-06T04:00:57;2.72;;;1.20;;
50781;SDS011;36749;37.428;-121.972;2023-05-06T04:03:25;2.97;;;1.60;;
50781;SDS011;36749;37.428;-121.972;2023-05-06T04:05:51;2.78;;;1.50;;
50781;SDS011;36749;37.428;-121.972;2023-05-06T04:08:17;1.77;;;1.30;;
50781;SDS011;36749;37.428;-121.972;2023-05-06T04:10:44;6.68;;;1.30;;
50781;SDS011;36749;37.428;-121.972;2023-05-06T04:13:10;3.50;;;1.65;;
50781;SDS011;36749;37.428;-121.972;2023-05-06T04:15:36;6.38;;;2.10;;
50781;SDS011;36749;37.428;-121.972;2023-05-06T04:18:03;1.95;;;1.30;;
50781;SDS011;36749;37.428;-121.972;2023-05-06T04:20:31;4.05;;;1.75;;
50781;SDS011;36749;37.428;-121.972;2023-05-06T04:22:58;6.88;;;1.70;;
50781;SDS011;36749;37.428;-121.972;2023-05-06T04:25:24;2.22;;;1.30;;
50781;SDS011;36749;37.428;-121.972;2023-05-06T04:27:50;5.00;;;2.03;;
50781;SDS011;36749;37.428;-121.972;2023-05-06T04:30:17;3.63;;;2.20;;
50781;SDS011;36749;37.428;-121.972;2023-05-06T04:32:45;2.22;;;2.00;;
50781;SDS011;36749;37.428;-121.972;2023-05-06T04:35:14;3.78;;;1.75;;
50781;SDS011;36749;37.428;-121.972;2023-05-06T04:37:40;2.85;;;1.73;;
50781;SDS011;36749;37.428;-121.972;2023-05-06T04:40:07;2.90;;;1.63;;
50781;SDS011;36749;37.428;-121.972;2023-05-06T04:42:34;3.50;;;1.85;;
50781;SDS011;36749;37.428;-121.972;2023-05-06T04:45:00;2.83;;;1.70;;
50781;SDS011;36749;37.428;-121.972;2023-05-06T04:47:27;1.65;;;1.52;;
50781;SDS011;36749;37.428;-121.972;2023-05-06T04:49:53;5.30;;;1.50;;
50781;SDS011;36749;37.428;-121.972;2023-05-06T04:52:20;2.47;;;1.52;;
50781;SDS011;36749;37.428;-121.972;2023-05-06T04:54:46;3.97;;;1.65;;
50781;SDS011;36749;37.428;-121.972;2023-05-06T04:57:12;3.90;;;1.90;;
50781;SDS011;36749;37.428;-121.972;2023-05-06T04:59:38;2.53;;;1.48;;
50781;SDS011;36749;37.428;-121.972;2023-05-06T05:02:06;1.75;;;1.33;;
50781;SDS011;36749;37.428;-121.972;2023-05-06T05:04:32;3.20;;;1.60;;
50781;SDS011;36749;37.428;-121.972;2023-05-06T05:06:59;2.17;;;1.42;;
50781;SDS011;36749;37.428;-121.972;2023-05-06T05:09:25;1.70;;;1.50;;
50781;SDS011;36749;37.428;-121.972;2023-05-06T05:11:51;4.10;;;1.88;;
50781;SDS011;36749;37.428;-121.972;2023-05-06T05:14:17;1.27;;;1.20;;
50781;SDS011;36749;37.428;-121.972;2023-05-06T05:16:47;5.38;;;1.58;;
50781;SDS011;36749;37.428;-121.972;2023-05-06T05:19:13;2.20;;;1.70;;
50781;SDS011;36749;37.428;-121.972;2023-05-06T05:21:39;2.95;;;1.55;;
50781;SDS011;36749;37.428;-121.972;2023-05-06T05:24:05;1.98;;;1.70;;
50781;SDS011;36749;37.428;-121.972;2023-05-06T05:26:31;2.55;;;1.70;;
50781;SDS011;36749;37.428;-121.972;2023-05-06T05:28:58;3.17;;;1.88;;
50781;SDS011;36749;37.428;-121.972;2023-05-06T05:31:24;4.53;;;1.90;;
50781;SDS011;36749;37.428;-121.972;2023-05-06T05:33:50;3.80;;;1.58;;
50781;SDS011;36749;37.428;-121.972;2023-05-06T05:36:16;4.43;;;1.63;;
50781;SDS011;36749;37.428;-121.972;2023-05-06T05:38:42;3.22;;;1.73;;
50781;SDS011;36749;37.428;-121.972;2023-05-06T05:41:09;3.33;;;2.00;;
50781;SDS011;36749;37.428;-121.972;2023-05-06T05:43:36;3.35;;;2.05;;
50781;SDS011;36749;37.428;-121.972;2023-05-06T05:46:02;6.20;;;1.90;;
50781;SDS011;36749;37.428;-121.972;2023-05-06T05:48:28;6.10;;;1.90;;
50781;SDS011;36749;37.428;-121.972;2023-05-06T05:50:57;1.65;;;1.55;;
50781;SDS011;36749;37.428;-121.972;2023-05-06T05:53:23;4.55;;;2.00;;
50781;SDS011;36749;37.428;-121.972;2023-05-06T05:55:50;5.07;;;1.83;;
50781;SDS011;36749;37.428;-121.972;2023-05-06T05:58:16;3.03;;;2.00;;
50781;SDS011;36749;37.428;-121.972;2023-05-06T06:00:42;4.15;;;1.85;;
50781;SDS011;36749;37.428;-121.972;2023-05-06T06:03:08;3.85;;;1.77;;
50781;SDS011;36749;37.428;-121.972;2023-05-06T06:05:35;5.80;;;2.30;;
50781;SDS011;36749;37.428;-121.972;2023-05-06T06:08:01;4.60;;;1.88;;
50781;SDS011;36749;37.428;-121.972;2023-05-06T06:10:28;4.97;;;2.50;;
50781;SDS011;36749;37.428;-121.972;2023-05-06T06:12:54;5.25;;;2.40;;
50781;SDS011;36749;37.428;-121.972;2023-05-06T06:15:20;5.00;;;2.42;;
50781;SDS011;36749;37.428;-121.972;2023-05-06T06:17:47;5.03;;;2.22;;
50781;SDS011;36749;37.428;-121.972;2023-05-06T06:20:13;5.47;;;2.20;;
50781;SDS011;36749;37.428;-121.972;2023-05-06T06:22:39;2.83;;;1.88;;
50781;SDS011;36749;37.428;-121.972;2023-05-06T06:25:06;7.20;;;2.10;;
50781;SDS011;36749;37.428;-121.972;2023-05-06T06:27:35;5.65;;;2.10;;
50781;SDS011;36749;37.428;-121.972;2023-05-06T06:30:01;4.22;;;2.50;;
50781;SDS011;36749;37.428;-121.972;2023-05-06T06:32:28;4.95;;;2.38;;
50781;SDS011;36749;37.428;-121.972;2023-05-06T06:34:54;3.50;;;2.70;;
50781;SDS011;36749;37.428;-121.972;2023-05-06T06:37:20;4.78;;;2.70;;
50781;SDS011;36749;37.428;-121.972;2023-05-06T06:39:46;5.68;;;3.40;;
50781;SDS011;36749;37.428;-121.972;2023-05-06T06:42:13;8.15;;;2.97;;
50781;SDS011;36749;37.428;-121.972;2023-05-06T06:44:39;7.78;;;3.70;;
50781;SDS011;36749;37.428;-121.972;2023-05-06T06:47:05;7.30;;;3.63;;
50781;SDS011;36749;37.428;-121.972;2023-05-06T06:49:31;5.78;;;3.95;;
50781;SDS011;36749;37.428;-121.972;2023-05-06T06:51:58;9.95;;;4.78;;
50781;SDS011;36749;37.428;-121.972;2023-05-06T06:54:24;10.57;;;4.57;;
50781;SDS011;36749;37.428;-121.972;2023-05-06T06:56:53;8.80;;;4.70;;
50781;SDS011;36749;37.428;-121.972;2023-05-06T06:59:23;7.15;;;4.30;;
50781;SDS011;36749;37.428;-121.972;2023-05-06T07:01:49;7.03;;;4.03;;
50781;SDS011;36749;37.428;-121.972;2023-05-06T07:04:16;7.30;;;4.70;;
50781;SDS011;36749;37.428;-121.972;2023-05-06T07:06:42;9.40;;;4.72;;
50781;SDS011;36749;37.428;-121.972;2023-05-06T07:09:08;9.02;;;4.75;;
50781;SDS011;36749;37.428;-121.972;2023-05-06T07:11:35;7.03;;;4.45;;
50781;SDS011;36749;37.428;-121.972;2023-05-06T07:14:01;7.47;;;4.88;;
50781;SDS011;36749;37.428;-121.972;2023-05-06T07:16:27;8.48;;;4.35;;
50781;SDS011;36749;37.428;-121.972;2023-05-06T07:18:53;8.10;;;4.88;;
50781;SDS011;36749;37.428;-121.972;2023-05-06T07:21:19;8.68;;;4.45;;
50781;SDS011;36749;37.428;-121.972;2023-05-06T07:23:45;7.00;;;4.35;;
50781;SDS011;36749;37.428;-121.972;2023-05-06T07:26:12;8.88;;;4.05;;
50781;SDS011;36749;37.428;-121.972;2023-05-06T07:28:38;8.18;;;4.53;;
50781;SDS011;36749;37.428;-121.972;2023-05-06T07:31:04;8.80;;;4.60;;
50781;SDS011;36749;37.428;-121.972;2023-05-06T07:33:30;8.32;;;3.58;;
50781;SDS011;36749;37.428;-121.972;2023-05-06T07:35:56;6.72;;;3.40;;
50781;SDS011;36749;37.428;-121.972;2023-05-06T07:38:22;8.02;;;3.15;;
50781;SDS011;36749;37.428;-121.972;2023-05-06T07:40:49;4.10;;;2.80;;
50781;SDS011;36749;37.428;-121.972;2023-05-06T07:43:15;5.32;;;3.53;;
50781;SDS011;36749;37.428;-121.972;2023-05-06T07:45:42;7.28;;;3.50;;
50781;SDS011;36749;37.428;-121.972;2023-05-06T07:48:08;8.07;;;3.78;;
50781;SDS011;36749;37.428;-121.972;2023-05-06T07:50:34;7.57;;;3.20;;
50781;SDS011;36749;37.428;-121.972;2023-05-06T07:53:00;6.03;;;3.13;;
50781;SDS011;36749;37.428;-121.972;2023-05-06T07:55:28;5.70;;;3.00;;
50781;SDS011;36749;37.428;-121.972;2023-05-06T07:57:54;4.60;;;3.10;;
50781;SDS011;36749;37.428;-121.972;2023-05-06T08:00:20;7.55;;;3.60;;
50781;SDS011;36749;37.428;-121.972;2023-05-06T08:02:46;6.32;;;3.25;;
50781;SDS011;36749;37.428;-121.972;2023-05-06T08:05:13;5.30;;;3.13;;
50781;SDS011;36749;37.428;-121.972;2023-05-06T08:07:39;6.50;;;3.28;;
50781;SDS011;36749;37.428;-121.972;2023-05-06T08:10:07;4.93;;;2.90;;
50781;SDS011;36749;37.428;-121.972;2023-05-06T08:12:34;4.70;;;3.20;;
50781;SDS011;36749;37.428;-121.972;2023-05-06T08:15:01;6.22;;;3.40;;
50781;SDS011;36749;37.428;-121.972;2023-05-06T08:17:27;5.45;;;3.08;;
50781;SDS011;36749;37.428;-121.972;2023-05-06T08:19:53;6.70;;;3.20;;
50781;SDS011;36749;37.428;-121.972;2023-05-06T08:22:20;5.88;;;2.75;;
50781;SDS011;36749;37.428;-121.972;2023-05-06T08:24:46;4.40;;;3.10;;
50781;SDS011;36749;37.428;-121.972;2023-05-06T08:27:12;5.10;;;2.65;;
50781;SDS011;36749;37.428;-121.972;2023-05-06T08:29:38;6.20;;;3.00;;
50781;SDS011;36749;37.428;-121.972;2023-05-06T08:32:04;6.60;;;2.97;;
50781;SDS011;36749;37.428;-121.972;2023-05-06T08:34:31;4.70;;;2.80;;
50781;SDS011;36749;37.428;-121.972;2023-05-06T08:36:59;6.45;;;2.60;;
50781;SDS011;36749;37.428;-121.972;2023-05-06T08:39:26;4.65;;;3.05;;
50781;SDS011;36749;37.428;-121.972;2023-05-06T08:41:52;3.92;;;2.53;;
50781;SDS011;36749;37.428;-121.972;2023-05-06T08:44:19;5.43;;;2.85;;
50781;SDS011;36749;37.428;-121.972;2023-05-06T08:46:48;4.60;;;2.83;;
50781;SDS011;36749;37.428;-121.972;2023-05-06T08:49:15;4.32;;;2.67;;
50781;SDS011;36749;37.428;-121.972;2023-05-06T08:51:42;4.15;;;2.53;;
50781;SDS011;36749;37.428;-121.972;2023-05-06T08:54:09;5.05;;;2.45;;
50781;SDS011;36749;37.428;-121.972;2023-05-06T08:56:36;4.35;;;2.70;;
50781;SDS011;36749;37.428;-121.972;2023-05-06T08:59:04;8.15;;;3.28;;
50781;SDS011;36749;37.428;-121.972;2023-05-06T09:01:33;3.58;;;2.58;;
50781;SDS011;36749;37.428;-121.972;2023-05-06T09:04:01;4.13;;;2.85;;
50781;SDS011;36749;37.428;-121.972;2023-05-06T09:06:31;3.65;;;2.38;;
50781;SDS011;36749;37.428;-121.972;2023-05-06T09:08:58;5.07;;;2.45;;
50781;SDS011;36749;37.428;-121.972;2023-05-06T09:11:25;4.18;;;2.55;;
50781;SDS011;36749;37.428;-121.972;2023-05-06T09:16:51;4.63;;;2.83;;
50781;SDS011;36749;37.428;-121.972;2023-05-06T09:19:20;9.27;;;3.00;;
50781;SDS011;36749;37.428;-121.972;2023-05-06T09:21:48;5.68;;;3.05;;
50781;SDS011;36749;37.428;-121.972;2023-05-06T09:24:14;3.67;;;2.63;;
50781;SDS011;36749;37.428;-121.972;2023-05-06T09:26:42;6.10;;;3.47;;
50781;SDS011;36749;37.428;-121.972;2023-05-06T09:29:09;4.93;;;2.95;;
50781;SDS011;36749;37.428;-121.972;2023-05-06T09:31:43;5.68;;;3.28;;
50781;SDS011;36749;37.428;-121.972;2023-05-06T09:34:10;8.30;;;3.47;;
50781;SDS011;36749;37.428;-121.972;2023-05-06T09:36:36;8.35;;;3.65;;
50781;SDS011;36749;37.428;-121.972;2023-05-06T09:39:05;11.65;;;3.45;;
50781;SDS011;36749;37.428;-121.972;2023-05-06T09:41:32;8.27;;;3.60;;
50781;SDS011;36749;37.428;-121.972;2023-05-06T09:43:59;6.60;;;3.80;;
50781;SDS011;36749;37.428;-121.972;2023-05-06T09:46:25;10.43;;;3.80;;
50781;SDS011;36749;37.428;-121.972;2023-05-06T09:48:55;9.07;;;4.05;;
50781;SDS011;36749;37.428;-121.972;2023-05-06T09:51:22;6.18;;;4.10;;
50781;SDS011;36749;37.428;-121.972;2023-05-06T09:53:49;8.38;;;3.83;;
50781;SDS011;36749;37.428;-121.972;2023-05-06T09:56:16;6.75;;;4.22;;
50781;SDS011;36749;37.428;-121.972;2023-05-06T09:58:42;7.55;;;4.43;;
50781;SDS011;36749;37.428;-121.972;2023-05-06T10:01:10;9.45;;;4.75;;
50781;SDS011;36749;37.428;-121.972;2023-05-06T10:03:37;11.30;;;4.75;;
50781;SDS011;36749;37.428;-121.972;2023-05-06T10:06:04;7.53;;;4.47;;
50781;SDS011;36749;37.428;-121.972;2023-05-06T10:08:32;8.75;;;4.93;;
50781;SDS011;36749;37.428;-121.972;2023-05-06T10:10:59;9.18;;;4.07;;
50781;SDS011;36749;37.428;-121.972;2023-05-06T10:13:26;8.68;;;4.15;;
50781;SDS011;36749;37.428;-121.972;2023-05-06T10:15:53;6.05;;;3.97;;
50781;SDS011;36749;37.428;-121.972;2023-05-06T10:18:20;4.65;;;3.53;;
50781;SDS011;36749;37.428;-121.972;2023-05-06T10:20:47;8.80;;;4.25;;
50781;SDS011;36749;37.428;-121.972;2023-05-06T10:23:24;8.70;;;3.83;;
50781;SDS011;36749;37.428;-121.972;2023-05-06T10:25:55;5.70;;;3.35;;
50781;SDS011;36749;37.428;-121.972;2023-05-06T10:28:22;5.50;;;3.53;;
50781;SDS011;36749;37.428;-121.972;2023-05-06T10:30:49;7.07;;;3.60;;
50781;SDS011;36749;37.428;-121.972;2023-05-06T10:33:16;5.20;;;3.25;;
50781;SDS011;36749;37.428;-121.972;2023-05-06T10:38:36;7.18;;;3.58;;
50781;SDS011;36749;37.428;-121.972;2023-05-06T10:41:06;7.25;;;3.92;;
50781;SDS011;36749;37.428;-121.972;2023-05-06T10:43:33;8.93;;;3.90;;
50781;SDS011;36749;37.428;-121.972;2023-05-06T10:46:08;5.10;;;3.38;;
50781;SDS011;36749;37.428;-121.972;2023-05-06T10:48:36;6.55;;;4.07;;
50781;SDS011;36749;37.428;-121.972;2023-05-06T10:51:22;5.55;;;3.47;;
50781;SDS011;36749;37.428;-121.972;2023-05-06T10:53:55;5.60;;;3.53;;
50781;SDS011;36749;37.428;-121.972;2023-05-06T10:56:27;7.97;;;3.97;;
50781;SDS011;36749;37.428;-121.972;2023-05-06T10:59:20;6.60;;;3.75;;
50781;SDS011;36749;37.428;-121.972;2023-05-06T11:01:55;6.28;;;3.70;;
50781;SDS011;36749;37.428;-121.972;2023-05-06T11:04:32;9.05;;;4.60;;
50781;SDS011;36749;37.428;-121.972;2023-05-06T11:07:11;6.97;;;3.60;;
50781;SDS011;36749;37.428;-121.972;2023-05-06T11:09:55;5.63;;;3.25;;
50781;SDS011;36749;37.428;-121.972;2023-05-06T11:12:42;6.73;;;3.53;;
50781;SDS011;36749;37.428;-121.972;2023-05-06T11:15:26;5.15;;;3.20;;
50781;SDS011;36749;37.428;-121.972;2023-05-06T11:26:08;5.00;;;2.70;;
50781;SDS011;36749;37.428;-121.972;2023-05-06T11:28:34;5.93;;;2.80;;
50781;SDS011;36749;37.428;-121.972;2023-05-06T11:31:00;4.75;;;3.40;;
50781;SDS011;36749;37.428;-121.972;2023-05-06T11:33:33;7.00;;;2.60;;
50781;SDS011;36749;37.428;-121.972;2023-05-06T11:36:01;4.03;;;2.55;;
50781;SDS011;36749;37.428;-121.972;2023-05-06T11:38:44;7.32;;;2.80;;
50781;SDS011;36749;37.428;-121.972;2023-05-06T11:41:12;6.57;;;3.05;;
50781;SDS011;36749;37.428;-121.972;2023-05-06T11:43:38;4.72;;;2.50;;
50781;SDS011;36749;37.428;-121.972;2023-05-06T11:46:05;5.40;;;2.78;;
50781;SDS011;36749;37.428;-121.972;2023-05-06T11:48:31;6.57;;;3.08;;
50781;SDS011;36749;37.428;-121.972;2023-05-06T11:50:57;3.42;;;2.83;;
50781;SDS011;36749;37.428;-121.972;2023-05-06T11:53:23;6.93;;;3.20;;
50781;SDS011;36749;37.428;-121.972;2023-05-06T11:55:52;5.75;;;2.72;;
50781;SDS011;36749;37.428;-121.972;2023-05-06T11:58:22;3.20;;;2.70;;
50781;SDS011;36749;37.428;-121.972;2023-05-06T12:00:59;4.03;;;2.80;;
50781;SDS011;36749;37.428;-121.972;2023-05-06T12:03:28;6.60;;;3.35;;
50781;SDS011;36749;37.428;-121.972;2023-05-06T12:05:55;4.60;;;2.80;;
50781;SDS011;36749;37.428;-121.972;2023-05-06T12:08:26;4.80;;;3.20;;
50781;SDS011;36749;37.428;-121.972;2023-05-06T12:11:06;6.22;;;2.88;;
50781;SDS011;36749;37.428;-121.972;2023-05-06T12:13:33;6.53;;;2.75;;
50781;SDS011;36749;37.428;-121.972;2023-05-06T12:16:00;4.60;;;2.60;;
50781;SDS011;36749;37.428;-121.972;2023-05-06T12:18:27;6.13;;;2.97;;
50781;SDS011;36749;37.428;-121.972;2023-05-06T12:20:54;5.75;;;2.65;;
50781;SDS011;36749;37.428;-121.972;2023-05-06T12:23:21;9.25;;;3.00;;
50781;SDS011;36749;37.428;-121.972;2023-05-06T12:26:03;3.30;;;2.47;;
50781;SDS011;36749;37.428;-121.972;2023-05-06T12:28:31;3.83;;;2.60;;
50781;SDS011;36749;37.428;-121.972;2023-05-06T12:30:59;3.85;;;3.38;;
50781;SDS011;36749;37.428;-121.972;2023-05-06T12:33:26;3.30;;;2.25;;
50781;SDS011;36749;37.428;-121.972;2023-05-06T12:35:52;3.28;;;2.47;;
50781;SDS011;36749;37.428;-121.972;2023-05-06T12:38:22;4.15;;;2.35;;
50781;SDS011;36749;37.428;-121.972;2023-05-06T12:40:52;5.93;;;2.40;;
50781;SDS011;36749;37.428;-121.972;2023-05-06T12:43:26;6.97;;;2.72;;
50781;SDS011;36749;37.428;-121.972;2023-05-06T12:46:05;5.15;;;2.80;;
50781;SDS011;36749;37.428;-121.972;2023-05-06T12:48:33;4.45;;;2.60;;
50781;SDS011;36749;37.428;-121.972;2023-05-06T12:50:59;4.07;;;2.72;;
50781;SDS011;36749;37.428;-121.972;2023-05-06T12:53:33;4.32;;;3.08;;
50781;SDS011;36749;37.428;-121.972;2023-05-06T12:56:00;6.32;;;2.72;;
50781;SDS011;36749;37.428;-121.972;2023-05-06T12:58:26;5.07;;;2.72;;
50781;SDS011;36749;37.428;-121.972;2023-05-06T13:00:52;5.75;;;3.45;;
50781;SDS011;36749;37.428;-121.972;2023-05-06T13:03:18;7.75;;;4.63;;
50781;SDS011;36749;37.428;-121.972;2023-05-06T13:05:45;5.95;;;3.72;;
50781;SDS011;36749;37.428;-121.972;2023-05-06T13:08:14;4.80;;;3.10;;
50781;SDS011;36749;37.428;-121.972;2023-05-06T13:10:40;5.95;;;3.70;;
50781;SDS011;36749;37.428;-121.972;2023-05-06T13:13:06;5.32;;;3.50;;
50781;SDS011;36749;37.428;-121.972;2023-05-06T13:15:32;7.13;;;3.40;;
50781;SDS011;36749;37.428;-121.972;2023-05-06T13:17:59;3.88;;;3.08;;
50781;SDS011;36749;37.428;-121.972;2023-05-06T13:20:25;3.75;;;3.10;;
50781;SDS011;36749;37.428;-121.972;2023-05-06T13:22:52;8.15;;;3.45;;
50781;SDS011;36749;37.428;-121.972;2023-05-06T13:25:18;7.50;;;3.00;;
50781;SDS011;36749;37.428;-121.972;2023-05-06T13:27:45;7.15;;;3.45;;
50781;SDS011;36749;37.428;-121.972;2023-05-06T13:30:11;7.07;;;3.40;;
50781;SDS011;36749;37.428;-121.972;2023-05-06T13:32:37;4.97;;;3.40;;
50781;SDS011;36749;37.428;-121.972;2023-05-06T13:35:03;3.55;;;2.65;;
50781;SDS011;36749;37.428;-121.972;2023-05-06T13:37:30;6.85;;;3.13;;
50781;SDS011;36749;37.428;-121.972;2023-05-06T13:39:56;5.72;;;3.10;;
50781;SDS011;36749;37.428;-121.972;2023-05-06T13:42:22;5.93;;;3.75;;
50781;SDS011;36749;37.428;-121.972;2023-05-06T13:44:49;10.68;;;3.40;;
50781;SDS011;36749;37.428;-121.972;2023-05-06T13:47:15;9.32;;;3.70;;
50781;SDS011;36749;37.428;-121.972;2023-05-06T13:49:41;7.43;;;3.80;;
50781;SDS011;36749;37.428;-121.972;2023-05-06T13:52:07;8.35;;;3.80;;
50781;SDS011;36749;37.428;-121.972;2023-05-06T13:54:34;7.55;;;3.83;;
50781;SDS011;36749;37.428;-121.972;2023-05-06T13:57:00;5.07;;;3.63;;
50781;SDS011;36749;37.428;-121.972;2023-05-06T13:59:27;6.20;;;3.72;;
50781;SDS011;36749;37.428;-121.972;2023-05-06T14:01:53;8.48;;;3.47;;
50781;SDS011;36749;37.428;-121.972;2023-05-06T14:04:20;5.43;;;3.55;;
50781;SDS011;36749;37.428;-121.972;2023-05-06T14:06:46;7.50;;;3.60;;
50781;SDS011;36749;37.428;-121.972;2023-05-06T14:09:12;7.18;;;3.45;;
50781;SDS011;36749;37.428;-121.972;2023-05-06T14:11:38;8.60;;;4.05;;
50781;SDS011;36749;37.428;-121.972;2023-05-06T14:14:05;6.80;;;3.33;;
50781;SDS011;36749;37.428;-121.972;2023-05-06T14:16:31;8.15;;;3.63;;
50781;SDS011;36749;37.428;-121.972;2023-05-06T14:18:58;5.43;;;3.47;;
50781;SDS011;36749;37.428;-121.972;2023-05-06T14:21:24;8.57;;;4.18;;
50781;SDS011;36749;37.428;-121.972;2023-05-06T14:23:50;5.45;;;3.53;;
50781;SDS011;36749;37.428;-121.972;2023-05-06T14:26:16;10.88;;;4.88;;
50781;SDS011;36749;37.428;-121.972;2023-05-06T14:28:42;9.27;;;3.78;;
50781;SDS011;36749;37.428;-121.972;2023-05-06T14:31:09;8.95;;;3.42;;
50781;SDS011;36749;37.428;-121.972;2023-05-06T14:33:36;7.80;;;3.90;;
50781;SDS011;36749;37.428;-121.972;2023-05-06T14:36:03;9.18;;;3.72;;
50781;SDS011;36749;37.428;-121.972;2023-05-06T14:38:29;4.93;;;3.13;;